sensor_id;sensor_type;location;lat;lon;timestamp;pressure;altitude;pressure_sealevel;temperature;humidity
72558;BME280;60583;50.094;8.748;2023-03-01T00:01:08;101700.22;;;0.95;65.07
72558;BME280;60583;50.094;8.748;2023-03-01T00:03:34;101694.00;;;0.84;66.45
72558;BME280;60583;50.094;8.748;2023-03-01T00:06:01;101662.41;;;0.60;65.89
72558;BME280;60583;50.094;8.748;2023-03-01T00:08:27;101675.09;;;0.66;65.70
72558;BME280;60583;50.094;8.748;2023-03-01T00:11:12;101706.50;;;0.80;66.14
72558;BME280;60583;50.094;8.748;2023-03-01T00:13:42;101685.28;;;0.83;65.52
72558;BME280;60583;50.094;8.748;2023-03-01T00:16:12;101703.91;;;1.05;64.72
72558;BME280;60583;50.094;8.748;2023-03-01T00:18:41;101668.19;;;0.78;64.84
72558;BME280;60583;50.094;8.748;2023-03-01T00:21:07;101700.50;;;0.91;64.99
72558;BME280;60583;50.094;8.748;2023-03-01T00:23:36;101691.69;;;1.04;64.79
72558;BME280;60583;50.094;8.748;2023-03-01T00:26:02;101696.75;;;1.07;64.75
72558;BME280;60583;50.094;8.748;2023-03-01T00:28:31;101691.91;;;1.01;65.21
72558;BME280;60583;50.094;8.748;2023-03-01T00:31:02;101657.34;;;0.70;65.26
72558;BME280;60583;50.094;8.748;2023-03-01T00:33:28;101677.72;;;0.91;65.50
72558;BME280;60583;50.094;8.748;2023-03-01T00:35:54;101680.78;;;0.98;65.61
72558;BME280;60583;50.094;8.748;2023-03-01T00:38:19;101601.41;;;0.69;64.37
72558;BME280;60583;50.094;8.748;2023-03-01T00:40:45;101678.88;;;1.12;65.35
72558;BME280;60583;50.094;8.748;2023-03-01T00:43:10;101633.94;;;0.79;65.60
72558;BME280;60583;50.094;8.748;2023-03-01T00:45:36;101680.03;;;1.08;64.72
72558;BME280;60583;50.094;8.748;2023-03-01T00:48:02;101675.22;;;1.15;65.19
72558;BME280;60583;50.094;8.748;2023-03-01T00:50:29;101654.28;;;1.01;64.89
72558;BME280;60583;50.094;8.748;2023-03-01T00:52:55;101627.31;;;0.74;65.39
72558;BME280;60583;50.094;8.748;2023-03-01T00:55:21;101659.56;;;1.01;65.75
72558;BME280;60583;50.094;8.748;2023-03-01T00:57:50;101641.50;;;0.84;65.56
72558;BME280;60583;50.094;8.748;2023-03-01T01:00:16;101675.00;;;0.93;65.84
72558;BME280;60583;50.094;8.748;2023-03-01T01:02:42;101666.69;;;0.86;66.04
72558;BME280;60583;50.094;8.748;2023-03-01T01:05:08;101658.72;;;0.75;66.41
72558;BME280;60583;50.094;8.748;2023-03-01T01:07:34;101671.53;;;0.92;66.73
72558;BME280;60583;50.094;8.748;2023-03-01T01:09:59;101671.75;;;0.89;66.78
72558;BME280;60583;50.094;8.748;2023-03-01T01:12:25;101663.22;;;0.86;66.82
72558;BME280;60583;50.094;8.748;2023-03-01T01:14:53;101655.59;;;0.83;66.66
72558;BME280;60583;50.094;8.748;2023-03-01T01:17:20;101635.94;;;0.76;66.67
72558;BME280;60583;50.094;8.748;2023-03-01T01:19:45;101613.78;;;0.67;65.93
72558;BME280;60583;50.094;8.748;2023-03-01T01:22:11;101641.28;;;0.74;67.07
72558;BME280;60583;50.094;8.748;2023-03-01T01:24:36;101629.44;;;0.81;66.69
72558;BME280;60583;50.094;8.748;2023-03-01T01:27:02;101589.13;;;0.57;66.59
72558;BME280;60583;50.094;8.748;2023-03-01T01:29:27;101547.03;;;0.46;66.58
72558;BME280;60583;50.094;8.748;2023-03-01T01:31:53;101620.69;;;0.93;67.23
72558;BME280;60583;50.094;8.748;2023-03-01T01:34:20;101618.31;;;0.90;66.81
72558;BME280;60583;50.094;8.748;2023-03-01T01:36:50;101605.59;;;0.84;67.04
72558;BME280;60583;50.094;8.748;2023-03-01T01:39:16;101518.81;;;0.37;66.34
72558;BME280;60583;50.094;8.748;2023-03-01T01:41:42;101604.75;;;0.71;66.69
72558;BME280;60583;50.094;8.748;2023-03-01T01:46:51;101606.00;;;0.78;67.45
72558;BME280;60583;50.094;8.748;2023-03-01T01:52:20;101606.44;;;0.72;67.87
72558;BME280;60583;50.094;8.748;2023-03-01T01:54:57;101626.81;;;0.81;66.67
72558;BME280;60583;50.094;8.748;2023-03-01T01:57:33;101611.38;;;0.89;66.58
72558;BME280;60583;50.094;8.748;2023-03-01T02:00:06;101607.69;;;0.79;67.28
72558;BME280;60583;50.094;8.748;2023-03-01T02:02:33;101623.56;;;0.90;66.86
72558;BME280;60583;50.094;8.748;2023-03-01T02:05:15;101605.28;;;0.76;66.96
72558;BME280;60583;50.094;8.748;2023-03-01T02:07:44;101581.06;;;0.60;66.77
72558;BME280;60583;50.094;8.748;2023-03-01T02:10:10;101622.41;;;0.82;66.38
72558;BME280;60583;50.094;8.748;2023-03-01T02:12:35;101631.84;;;0.84;66.92
72558;BME280;60583;50.094;8.748;2023-03-01T02:15:02;101535.28;;;0.26;66.99
72558;BME280;60583;50.094;8.748;2023-03-01T02:17:28;101617.69;;;0.74;67.32
72558;BME280;60583;50.094;8.748;2023-03-01T02:20:15;101617.03;;;0.71;66.97
72558;BME280;60583;50.094;8.748;2023-03-01T02:22:46;101616.22;;;0.70;67.11
72558;BME280;60583;50.094;8.748;2023-03-01T02:27:58;101606.84;;;0.66;67.49
72558;BME280;60583;50.094;8.748;2023-03-01T02:30:25;101566.97;;;0.48;67.84
72558;BME280;60583;50.094;8.748;2023-03-01T02:32:52;101582.50;;;0.64;67.16
72558;BME280;60583;50.094;8.748;2023-03-01T02:35:19;101585.34;;;0.61;67.51
72558;BME280;60583;50.094;8.748;2023-03-01T02:37:45;101584.19;;;0.65;67.59
72558;BME280;60583;50.094;8.748;2023-03-01T02:40:13;101509.38;;;0.22;67.34
72558;BME280;60583;50.094;8.748;2023-03-01T02:42:51;101565.19;;;0.61;67.58
72558;BME280;60583;50.094;8.748;2023-03-01T02:45:19;101551.88;;;0.52;67.11
72558;BME280;60583;50.094;8.748;2023-03-01T02:47:44;101555.84;;;0.70;67.24
72558;BME280;60583;50.094;8.748;2023-03-01T02:56:15;101552.28;;;0.71;67.55
72558;BME280;60583;50.094;8.748;2023-03-01T02:58:42;101566.22;;;0.84;67.79
72558;BME280;60583;50.094;8.748;2023-03-01T03:01:16;101563.19;;;0.78;67.83
72558;BME280;60583;50.094;8.748;2023-03-01T03:03:42;101537.19;;;0.62;66.92
72558;BME280;60583;50.094;8.748;2023-03-01T03:06:08;101548.25;;;0.78;67.64
72558;BME280;60583;50.094;8.748;2023-03-01T03:08:33;101526.47;;;0.65;66.95
72558;BME280;60583;50.094;8.748;2023-03-01T03:10:59;101532.66;;;0.64;66.90
72558;BME280;60583;50.094;8.748;2023-03-01T03:13:25;101537.69;;;0.67;67.63
72558;BME280;60583;50.094;8.748;2023-03-01T03:15:57;101544.19;;;0.74;67.16
72558;BME280;60583;50.094;8.748;2023-03-01T03:18:23;101536.13;;;0.64;67.30
72558;BME280;60583;50.094;8.748;2023-03-01T03:20:52;101530.97;;;0.63;67.09
72558;BME280;60583;50.094;8.748;2023-03-01T03:23:20;101521.22;;;0.65;67.01
72558;BME280;60583;50.094;8.748;2023-03-01T03:25:49;101538.00;;;0.75;67.56
72558;BME280;60583;50.094;8.748;2023-03-01T03:28:14;101547.84;;;0.84;66.90
72558;BME280;60583;50.094;8.748;2023-03-01T03:30:41;101533.91;;;0.71;67.40
72558;BME280;60583;50.094;8.748;2023-03-01T03:33:08;101502.75;;;0.54;68.12
72558;BME280;60583;50.094;8.748;2023-03-01T03:35:43;101487.53;;;0.59;67.69
72558;BME280;60583;50.094;8.748;2023-03-01T03:38:10;101524.97;;;0.74;67.04
72558;BME280;60583;50.094;8.748;2023-03-01T03:40:44;101518.06;;;0.73;67.29
72558;BME280;60583;50.094;8.748;2023-03-01T03:43:14;101518.81;;;0.62;67.05
72558;BME280;60583;50.094;8.748;2023-03-01T03:45:41;101492.06;;;0.57;67.76
72558;BME280;60583;50.094;8.748;2023-03-01T03:48:08;101488.25;;;0.61;67.85
72558;BME280;60583;50.094;8.748;2023-03-01T03:50:35;101528.97;;;0.67;67.21
72558;BME280;60583;50.094;8.748;2023-03-01T03:53:03;101495.59;;;0.56;68.05
72558;BME280;60583;50.094;8.748;2023-03-01T03:55:29;101485.75;;;0.59;67.28
72558;BME280;60583;50.094;8.748;2023-03-01T03:57:57;101516.00;;;0.52;67.47
72558;BME280;60583;50.094;8.748;2023-03-01T04:00:27;101526.38;;;0.41;68.52
72558;BME280;60583;50.094;8.748;2023-03-01T04:02:53;101515.16;;;0.27;68.68
72558;BME280;60583;50.094;8.748;2023-03-01T04:05:22;101512.63;;;0.25;68.66
72558;BME280;60583;50.094;8.748;2023-03-01T04:07:48;101477.47;;;0.03;68.76
72558;BME280;60583;50.094;8.748;2023-03-01T04:10:16;101513.66;;;0.23;69.20
72558;BME280;60583;50.094;8.748;2023-03-01T04:12:41;101477.72;;;-0.01;68.76
72558;BME280;60583;50.094;8.748;2023-03-01T04:15:11;101533.06;;;0.33;69.31
72558;BME280;60583;50.094;8.748;2023-03-01T04:17:40;101462.28;;;-0.18;69.53
72558;BME280;60583;50.094;8.748;2023-03-01T04:20:15;101518.63;;;0.15;69.59
72558;BME280;60583;50.094;8.748;2023-03-01T04:22:46;101524.06;;;0.24;69.44
72558;BME280;60583;50.094;8.748;2023-03-01T04:25:12;101521.13;;;0.29;69.80
72558;BME280;60583;50.094;8.748;2023-03-01T04:27:39;101495.03;;;0.15;69.26
72558;BME280;60583;50.094;8.748;2023-03-01T04:30:05;101497.13;;;0.22;68.90
72558;BME280;60583;50.094;8.748;2023-03-01T04:32:31;101514.31;;;0.14;69.49
72558;BME280;60583;50.094;8.748;2023-03-01T04:34:57;101516.72;;;0.17;69.20
72558;BME280;60583;50.094;8.748;2023-03-01T04:37:22;101477.69;;;-0.13;69.96
72558;BME280;60583;50.094;8.748;2023-03-01T04:39:49;101519.03;;;0.09;70.49
72558;BME280;60583;50.094;8.748;2023-03-01T04:42:15;101495.09;;;0.00;69.23
72558;BME280;60583;50.094;8.748;2023-03-01T04:44:42;101513.47;;;0.26;69.55
72558;BME280;60583;50.094;8.748;2023-03-01T04:47:09;101484.75;;;0.12;69.72
72558;BME280;60583;50.094;8.748;2023-03-01T04:49:34;101505.28;;;0.18;69.47
72558;BME280;60583;50.094;8.748;2023-03-01T04:52:00;101519.44;;;0.28;70.40
72558;BME280;60583;50.094;8.748;2023-03-01T04:54:28;101515.16;;;0.27;69.40
72558;BME280;60583;50.094;8.748;2023-03-01T04:56:54;101500.16;;;0.16;69.53
72558;BME280;60583;50.094;8.748;2023-03-01T04:59:20;101495.31;;;0.10;69.31
72558;BME280;60583;50.094;8.748;2023-03-01T05:01:48;101513.13;;;0.18;69.50
72558;BME280;60583;50.094;8.748;2023-03-01T05:04:14;101509.91;;;0.14;69.62
72558;BME280;60583;50.094;8.748;2023-03-01T05:06:40;101456.75;;;-0.13;70.10
72558;BME280;60583;50.094;8.748;2023-03-01T05:09:06;101489.97;;;0.12;69.72
72558;BME280;60583;50.094;8.748;2023-03-01T05:11:31;101457.84;;;-0.30;70.38
72558;BME280;60583;50.094;8.748;2023-03-01T05:14:02;101504.84;;;-0.02;70.68
72558;BME280;60583;50.094;8.748;2023-03-01T05:16:28;101496.69;;;0.03;69.58
72558;BME280;60583;50.094;8.748;2023-03-01T05:18:53;101488.50;;;-0.05;70.08
72558;BME280;60583;50.094;8.748;2023-03-01T05:21:20;101505.91;;;0.09;70.23
72558;BME280;60583;50.094;8.748;2023-03-01T05:23:46;101511.47;;;0.04;70.29
72558;BME280;60583;50.094;8.748;2023-03-01T05:26:12;101495.63;;;0.06;70.35
72558;BME280;60583;50.094;8.748;2023-03-01T05:28:38;101465.53;;;-0.14;69.68
72558;BME280;60583;50.094;8.748;2023-03-01T05:31:04;101468.28;;;-0.03;69.97
72558;BME280;60583;50.094;8.748;2023-03-01T05:33:40;101488.81;;;0.16;68.91
72558;BME280;60583;50.094;8.748;2023-03-01T05:36:07;101509.91;;;0.27;69.01
72558;BME280;60583;50.094;8.748;2023-03-01T05:38:34;101495.63;;;0.06;69.77
72558;BME280;60583;50.094;8.748;2023-03-01T05:40:59;101501.06;;;0.03;70.06
72558;BME280;60583;50.094;8.748;2023-03-01T05:43:25;101488.09;;;0.01;70.29
72558;BME280;60583;50.094;8.748;2023-03-01T05:45:50;101427.19;;;-0.28;69.77
72558;BME280;60583;50.094;8.748;2023-03-01T05:48:16;101469.41;;;-0.07;69.22
72558;BME280;60583;50.094;8.748;2023-03-01T05:50:44;101490.38;;;0.06;69.69
72558;BME280;60583;50.094;8.748;2023-03-01T05:53:18;101422.13;;;-0.31;69.38
72558;BME280;60583;50.094;8.748;2023-03-01T05:55:47;101485.13;;;0.06;69.78
72558;BME280;60583;50.094;8.748;2023-03-01T05:58:15;101441.34;;;-0.18;69.88
72558;BME280;60583;50.094;8.748;2023-03-01T06:00:41;101461.84;;;-0.24;70.54
72558;BME280;60583;50.094;8.748;2023-03-01T06:03:10;101451.19;;;-0.09;69.60
72558;BME280;60583;50.094;8.748;2023-03-01T06:05:36;101493.00;;;0.06;70.15
72558;BME280;60583;50.094;8.748;2023-03-01T06:08:02;101493.13;;;0.17;70.20
72558;BME280;60583;50.094;8.748;2023-03-01T06:10:28;101483.38;;;0.19;69.02
72558;BME280;60583;50.094;8.748;2023-03-01T06:12:54;101485.25;;;0.04;70.07
72558;BME280;60583;50.094;8.748;2023-03-01T06:15:21;101480.41;;;-0.02;69.39
72558;BME280;60583;50.094;8.748;2023-03-01T06:17:46;101495.31;;;0.10;69.27
72558;BME280;60583;50.094;8.748;2023-03-01T06:20:20;101493.34;;;0.14;69.82
72558;BME280;60583;50.094;8.748;2023-03-01T06:22:47;101459.97;;;-0.10;69.63
72558;BME280;60583;50.094;8.748;2023-03-01T06:25:14;101504.88;;;0.24;69.88
72558;BME280;60583;50.094;8.748;2023-03-01T06:27:41;101453.81;;;-0.09;69.98
72558;BME280;60583;50.094;8.748;2023-03-01T06:30:09;101495.22;;;0.24;69.83
72558;BME280;60583;50.094;8.748;2023-03-01T06:32:36;101489.53;;;0.18;69.69
72558;BME280;60583;50.094;8.748;2023-03-01T06:35:03;101495.09;;;0.26;69.38
72558;BME280;60583;50.094;8.748;2023-03-01T06:37:29;101480.53;;;0.34;69.50
72558;BME280;60583;50.094;8.748;2023-03-01T06:39:55;101480.31;;;0.50;68.96
72558;BME280;60583;50.094;8.748;2023-03-01T06:42:20;101476.63;;;0.52;68.41
72558;BME280;60583;50.094;8.748;2023-03-01T06:44:46;101475.09;;;0.37;68.75
72558;BME280;60583;50.094;8.748;2023-03-01T06:47:12;101431.03;;;0.17;68.71
72558;BME280;60583;50.094;8.748;2023-03-01T06:49:37;101464.56;;;0.50;68.21
72558;BME280;60583;50.094;8.748;2023-03-01T06:52:03;101462.16;;;0.47;67.94
72558;BME280;60583;50.094;8.748;2023-03-01T06:54:28;101472.41;;;0.62;67.72
72558;BME280;60583;50.094;8.748;2023-03-01T06:56:54;101433.13;;;0.37;67.33
72558;BME280;60583;50.094;8.748;2023-03-01T06:59:19;101473.16;;;0.64;67.70
72558;BME280;60583;50.094;8.748;2023-03-01T07:01:45;101446.28;;;0.48;66.89
72558;BME280;60583;50.094;8.748;2023-03-01T07:04:11;101477.88;;;0.59;67.29
72558;BME280;60583;50.094;8.748;2023-03-01T07:06:37;101436.53;;;0.50;66.43
72558;BME280;60583;50.094;8.748;2023-03-01T07:09:03;101468.50;;;0.68;67.00
72558;BME280;60583;50.094;8.748;2023-03-01T07:11:28;101484.19;;;0.93;66.30
72558;BME280;60583;50.094;8.748;2023-03-01T07:13:53;101436.94;;;0.57;67.16
72558;BME280;60583;50.094;8.748;2023-03-01T07:16:20;101442.94;;;0.59;67.11
72558;BME280;60583;50.094;8.748;2023-03-01T07:18:46;101485.91;;;0.82;67.12
72558;BME280;60583;50.094;8.748;2023-03-01T07:21:13;101476.69;;;0.76;66.94
72558;BME280;60583;50.094;8.748;2023-03-01T07:23:39;101476.88;;;0.73;67.43
72558;BME280;60583;50.094;8.748;2023-03-01T07:26:05;101479.75;;;0.70;67.16
72558;BME280;60583;50.094;8.748;2023-03-01T07:28:31;101454.22;;;0.72;66.91
72558;BME280;60583;50.094;8.748;2023-03-01T07:31:01;101450.59;;;0.86;67.54
72558;BME280;60583;50.094;8.748;2023-03-01T07:33:27;101456.22;;;0.69;67.82
72558;BME280;60583;50.094;8.748;2023-03-01T07:35:59;101428.03;;;0.59;67.52
72558;BME280;60583;50.094;8.748;2023-03-01T07:38:26;101462.75;;;0.99;67.04
72558;BME280;60583;50.094;8.748;2023-03-01T07:40:52;101460.13;;;0.99;67.59
72558;BME280;60583;50.094;8.748;2023-03-01T07:43:17;101469.38;;;1.16;67.95
72558;BME280;60583;50.094;8.748;2023-03-01T07:45:43;101458.94;;;1.27;66.31
72558;BME280;60583;50.094;8.748;2023-03-01T07:48:09;101420.84;;;1.21;66.53
72558;BME280;60583;50.094;8.748;2023-03-01T07:50:34;101460.00;;;1.48;65.52
72558;BME280;60583;50.094;8.748;2023-03-01T07:53:00;101416.81;;;1.63;64.17
72558;BME280;60583;50.094;8.748;2023-03-01T07:55:26;101451.31;;;2.16;63.66
72558;BME280;60583;50.094;8.748;2023-03-01T07:57:51;101461.47;;;2.42;63.06
72558;BME280;60583;50.094;8.748;2023-03-01T08:00:17;101456.94;;;2.67;62.81
72558;BME280;60583;50.094;8.748;2023-03-01T08:02:42;101459.78;;;2.75;61.41
72558;BME280;60583;50.094;8.748;2023-03-01T08:05:09;101461.00;;;2.82;61.74
72558;BME280;60583;50.094;8.748;2023-03-01T08:07:35;101452.81;;;2.96;60.32
72558;BME280;60583;50.094;8.748;2023-03-01T08:10:01;101461.03;;;3.13;60.63
72558;BME280;60583;50.094;8.748;2023-03-01T08:12:26;101446.97;;;3.24;59.90
72558;BME280;60583;50.094;8.748;2023-03-01T08:14:53;101444.03;;;3.38;58.97
72558;BME280;60583;50.094;8.748;2023-03-01T08:17:19;101442.94;;;3.41;58.79
72558;BME280;60583;50.094;8.748;2023-03-01T08:19:45;101438.09;;;3.77;58.57
72558;BME280;60583;50.094;8.748;2023-03-01T08:22:10;101447.09;;;3.96;57.64
72558;BME280;60583;50.094;8.748;2023-03-01T08:24:36;101373.31;;;3.43;56.74
72558;BME280;60583;50.094;8.748;2023-03-01T08:27:01;101404.16;;;3.94;56.46
72558;BME280;60583;50.094;8.748;2023-03-01T08:29:30;101426.50;;;4.10;56.56
72558;BME280;60583;50.094;8.748;2023-03-01T08:31:56;101428.50;;;4.27;55.87
72558;BME280;60583;50.094;8.748;2023-03-01T08:34:21;101397.97;;;4.34;55.75
72558;BME280;60583;50.094;8.748;2023-03-01T08:36:48;101420.06;;;4.73;54.99
72558;BME280;60583;50.094;8.748;2023-03-01T08:39:16;101430.63;;;4.73;54.34
72558;BME280;60583;50.094;8.748;2023-03-01T08:41:43;101437.06;;;4.90;54.43
72558;BME280;60583;50.094;8.748;2023-03-01T08:44:10;101422.16;;;4.89;53.76
72558;BME280;60583;50.094;8.748;2023-03-01T08:46:38;101425.25;;;5.03;52.83
72558;BME280;60583;50.094;8.748;2023-03-01T08:49:14;101419.56;;;5.08;53.22
72558;BME280;60583;50.094;8.748;2023-03-01T08:51:41;101413.28;;;5.09;53.09
72558;BME280;60583;50.094;8.748;2023-03-01T08:54:10;101365.69;;;5.09;52.72
72558;BME280;60583;50.094;8.748;2023-03-01T08:56:36;101414.97;;;5.58;52.54
72558;BME280;60583;50.094;8.748;2023-03-01T08:59:02;101369.34;;;5.08;51.51
72558;BME280;60583;50.094;8.748;2023-03-01T09:01:27;101414.53;;;5.34;51.81
72558;BME280;60583;50.094;8.748;2023-03-01T09:03:53;101410.78;;;5.36;51.39
72558;BME280;60583;50.094;8.748;2023-03-01T09:06:18;101409.41;;;5.32;52.32
72558;BME280;60583;50.094;8.748;2023-03-01T09:08:46;101403.69;;;5.56;51.41
72558;BME280;60583;50.094;8.748;2023-03-01T09:11:15;101407.25;;;5.74;51.72
72558;BME280;60583;50.094;8.748;2023-03-01T09:13:42;101353.88;;;5.23;52.18
72558;BME280;60583;50.094;8.748;2023-03-01T09:16:08;101374.88;;;5.34;51.86
72558;BME280;60583;50.094;8.748;2023-03-01T09:18:35;101377.63;;;5.51;52.11
72558;BME280;60583;50.094;8.748;2023-03-01T09:21:15;101351.59;;;5.66;50.97
72558;BME280;60583;50.094;8.748;2023-03-01T09:23:42;101377.22;;;6.21;50.63
72558;BME280;60583;50.094;8.748;2023-03-01T09:26:10;101336.53;;;6.13;50.26
72558;BME280;60583;50.094;8.748;2023-03-01T09:28:36;101369.44;;;6.37;49.52
72558;BME280;60583;50.094;8.748;2023-03-01T09:31:02;101352.44;;;6.40;49.29
72558;BME280;60583;50.094;8.748;2023-03-01T09:33:29;101360.41;;;6.58;48.66
72558;BME280;60583;50.094;8.748;2023-03-01T09:35:59;101369.03;;;6.60;49.10
72558;BME280;60583;50.094;8.748;2023-03-01T09:38:25;101361.56;;;6.73;48.23
72558;BME280;60583;50.094;8.748;2023-03-01T09:40:51;101330.16;;;6.78;48.53
72558;BME280;60583;50.094;8.748;2023-03-01T09:43:37;101383.94;;;6.88;48.23
72558;BME280;60583;50.094;8.748;2023-03-01T09:46:09;101347.06;;;6.94;48.01
72558;BME280;60583;50.094;8.748;2023-03-01T09:48:43;101371.16;;;7.19;47.65
72558;BME280;60583;50.094;8.748;2023-03-01T09:51:19;101366.09;;;7.51;46.78
72558;BME280;60583;50.094;8.748;2023-03-01T09:53:48;101361.72;;;7.85;45.65
72558;BME280;60583;50.094;8.748;2023-03-01T10:04:45;101347.88;;;10.88;39.55
72558;BME280;60583;50.094;8.748;2023-03-01T10:07:22;101313.75;;;11.58;37.27
72558;BME280;60583;50.094;8.748;2023-03-01T10:09:55;101345.41;;;12.42;36.07
72558;BME280;60583;50.094;8.748;2023-03-01T10:12:25;101334.81;;;13.27;34.68
72558;BME280;60583;50.094;8.748;2023-03-01T10:15:06;101312.84;;;13.59;33.31
72558;BME280;60583;50.094;8.748;2023-03-01T10:17:43;101342.44;;;14.06;32.11
72558;BME280;60583;50.094;8.748;2023-03-01T10:20:24;101333.69;;;14.86;31.15
72558;BME280;60583;50.094;8.748;2023-03-01T10:22:50;101345.75;;;15.36;31.06
72558;BME280;60583;50.094;8.748;2023-03-01T10:27:53;101313.63;;;16.07;28.83
72558;BME280;60583;50.094;8.748;2023-03-01T10:30:37;101324.38;;;16.71;28.42
72558;BME280;60583;50.094;8.748;2023-03-01T10:33:17;101324.19;;;16.97;28.18
72558;BME280;60583;50.094;8.748;2023-03-01T10:35:45;101305.66;;;16.31;27.87
72558;BME280;60583;50.094;8.748;2023-03-01T10:38:13;101311.38;;;17.48;27.00
72558;BME280;60583;50.094;8.748;2023-03-01T10:43:15;101271.03;;;17.60;26.39
72558;BME280;60583;50.094;8.748;2023-03-01T10:45:41;101295.72;;;17.81;26.35
72558;BME280;60583;50.094;8.748;2023-03-01T10:48:25;101289.97;;;18.32;25.66
72558;BME280;60583;50.094;8.748;2023-03-01T10:53:38;101289.47;;;19.25;24.04
72558;BME280;60583;50.094;8.748;2023-03-01T10:56:08;101282.22;;;19.60;23.55
72558;BME280;60583;50.094;8.748;2023-03-01T10:58:36;101261.28;;;20.58;22.99
72558;BME280;60583;50.094;8.748;2023-03-01T11:03:42;101255.00;;;21.14;22.19
72558;BME280;60583;50.094;8.748;2023-03-01T11:08:41;101243.91;;;20.43;21.49
72558;BME280;60583;50.094;8.748;2023-03-01T11:11:23;101247.25;;;20.61;21.18
72558;BME280;60583;50.094;8.748;2023-03-01T11:13:58;101210.88;;;21.40;20.46
72558;BME280;60583;50.094;8.748;2023-03-01T11:16:30;101215.28;;;21.08;19.79
72558;BME280;60583;50.094;8.748;2023-03-01T11:18:59;101223.69;;;21.61;20.08
72558;BME280;60583;50.094;8.748;2023-03-01T11:21:26;101234.63;;;22.58;20.16
72558;BME280;60583;50.094;8.748;2023-03-01T11:23:54;101227.84;;;21.69;19.61
72558;BME280;60583;50.094;8.748;2023-03-01T11:26:19;101232.13;;;22.03;19.78
72558;BME280;60583;50.094;8.748;2023-03-01T11:28:50;101211.03;;;21.89;19.92
72558;BME280;60583;50.094;8.748;2023-03-01T11:31:17;101178.06;;;22.29;19.14
72558;BME280;60583;50.094;8.748;2023-03-01T11:39:20;101193.88;;;20.62;20.40
72558;BME280;60583;50.094;8.748;2023-03-01T11:41:52;101208.22;;;21.45;19.55
72558;BME280;60583;50.094;8.748;2023-03-01T11:44:25;101192.63;;;21.96;18.92
72558;BME280;60583;50.094;8.748;2023-03-01T11:50:19;101198.34;;;22.21;19.00
72558;BME280;60583;50.094;8.748;2023-03-01T11:56:28;101186.09;;;21.53;18.23
72558;BME280;60583;50.094;8.748;2023-03-01T11:58:49;101155.72;;;22.80;18.24
72558;BME280;60583;50.094;8.748;2023-03-01T12:15:20;101162.53;;;22.24;18.41
72558;BME280;60583;50.094;8.748;2023-03-01T12:18:28;101151.44;;;22.04;18.46
72558;BME280;60583;50.094;8.748;2023-03-01T12:21:18;101156.56;;;20.85;18.56
72558;BME280;60583;50.094;8.748;2023-03-01T12:23:54;101143.97;;;22.74;17.63
72558;BME280;60583;50.094;8.748;2023-03-01T12:32:36;101118.91;;;21.66;18.13
72558;BME280;60583;50.094;8.748;2023-03-01T12:35:23;101137.09;;;20.72;19.11
72558;BME280;60583;50.094;8.748;2023-03-01T12:40:40;101127.94;;;21.28;19.01
72558;BME280;60583;50.094;8.748;2023-03-01T12:48:46;101061.19;;;20.72;19.17
72558;BME280;60583;50.094;8.748;2023-03-01T12:51:16;101100.25;;;18.07;20.83
72558;BME280;60583;50.094;8.748;2023-03-01T12:53:46;101081.66;;;20.63;20.24
72558;BME280;60583;50.094;8.748;2023-03-01T12:56:16;101056.13;;;20.42;19.47
72558;BME280;60583;50.094;8.748;2023-03-01T13:01:45;101041.03;;;21.44;18.86
72558;BME280;60583;50.094;8.748;2023-03-01T13:04:51;101061.13;;;21.92;18.19
72558;BME280;60583;50.094;8.748;2023-03-01T13:07:19;101076.28;;;22.14;18.57
72558;BME280;60583;50.094;8.748;2023-03-01T13:09:55;101061.63;;;20.64;19.15
72558;BME280;60583;50.094;8.748;2023-03-01T13:17:50;101063.91;;;21.27;18.58
72558;BME280;60583;50.094;8.748;2023-03-01T13:20:17;100985.00;;;20.52;18.39
72558;BME280;60583;50.094;8.748;2023-03-01T13:22:45;101060.72;;;21.13;18.87
72558;BME280;60583;50.094;8.748;2023-03-01T13:25:15;101043.88;;;19.78;19.72
72558;BME280;60583;50.094;8.748;2023-03-01T13:27:44;101049.59;;;18.32;21.16
72558;BME280;60583;50.094;8.748;2023-03-01T13:30:45;101059.78;;;16.44;24.07
72558;BME280;60583;50.094;8.748;2023-03-01T13:35:49;101044.28;;;14.23;26.73
72558;BME280;60583;50.094;8.748;2023-03-01T13:38:45;101041.53;;;13.64;27.42
72558;BME280;60583;50.094;8.748;2023-03-01T13:41:15;101055.38;;;12.86;27.73
72558;BME280;60583;50.094;8.748;2023-03-01T13:43:43;101016.91;;;12.31;29.14
72558;BME280;60583;50.094;8.748;2023-03-01T13:46:17;101038.31;;;12.31;29.87
72558;BME280;60583;50.094;8.748;2023-03-01T13:48:45;101033.03;;;12.38;31.19
72558;BME280;60583;50.094;8.748;2023-03-01T13:51:13;101029.00;;;11.78;32.53
72558;BME280;60583;50.094;8.748;2023-03-01T13:53:43;101051.31;;;11.71;31.69
72558;BME280;60583;50.094;8.748;2023-03-01T13:56:27;101013.00;;;11.28;32.53
72558;BME280;60583;50.094;8.748;2023-03-01T13:58:58;101027.53;;;10.89;32.29
72558;BME280;60583;50.094;8.748;2023-03-01T14:01:35;101015.47;;;10.64;32.30
72558;BME280;60583;50.094;8.748;2023-03-01T14:04:02;101025.31;;;10.64;33.16
72558;BME280;60583;50.094;8.748;2023-03-01T14:06:33;101021.03;;;10.40;33.36
72558;BME280;60583;50.094;8.748;2023-03-01T14:09:22;101005.16;;;10.09;33.85
72558;BME280;60583;50.094;8.748;2023-03-01T14:15:02;100963.00;;;9.76;34.87
72558;BME280;60583;50.094;8.748;2023-03-01T14:20:25;101015.69;;;10.03;33.97
72558;BME280;60583;50.094;8.748;2023-03-01T14:22:56;101020.44;;;10.15;34.70
72558;BME280;60583;50.094;8.748;2023-03-01T14:28:19;101012.75;;;9.98;34.98
72558;BME280;60583;50.094;8.748;2023-03-01T14:30:49;100983.09;;;10.01;34.76
72558;BME280;60583;50.094;8.748;2023-03-01T14:33:34;101005.69;;;10.05;34.81
72558;BME280;60583;50.094;8.748;2023-03-01T14:36:07;100963.41;;;9.42;35.13
72558;BME280;60583;50.094;8.748;2023-03-01T14:38:44;100997.34;;;9.40;36.25
72558;BME280;60583;50.094;8.748;2023-03-01T14:41:21;101009.97;;;9.46;36.40
72558;BME280;60583;50.094;8.748;2023-03-01T14:43:52;101015.59;;;9.51;36.35